Terminal Aerodrome Forecast
Issued by NWS

Home | Current Version | Previous Version | Text Only | Print | Product List | Glossary Off
Versions: 1 2 3 4 5 6 7 8 9 10 11 12 13 14 15 16 17 18 19 20 21

000
FTUS43 KBIS 290914 AAA
TAFJMS
TAF AMD
KJMS 290914Z 2909/3006 30004KT 6SM BR SCT200
      TEMPO 2910/2913 2SM BR
     FM291400 30012KT P6SM FEW090
     FM300100 28008KT P6SM SKC
     FM300400 23004KT P6SM FEW250=

USA.gov is the U.S. government's official web portal to all federal, state and local government web resources and services.